createdAt,value
2022-11-29T00:01:17.196Z,15.00
2022-11-29T00:03:45.088Z,16.00
2022-11-29T00:06:14.107Z,15.00
2022-11-29T00:08:42.391Z,15.75
2022-11-29T00:11:10.985Z,14.00
2022-11-29T00:13:38.911Z,15.75
2022-11-29T00:16:08.301Z,14.25
2022-11-29T00:18:37.649Z,13.75
2022-11-29T00:21:06.870Z,14.50
2022-11-29T00:23:34.789Z,15.00
2022-11-29T00:26:05.976Z,14.75
2022-11-29T00:28:33.928Z,14.00
2022-11-29T00:31:01.858Z,14.75
2022-11-29T00:33:29.780Z,13.75
2022-11-29T00:36:01.648Z,13.50
2022-11-29T00:38:29.560Z,14.25
2022-11-29T00:40:57.381Z,11.75
2022-11-29T00:43:25.288Z,15.00
2022-11-29T00:45:53.495Z,12.75
2022-11-29T00:48:21.405Z,11.75
2022-11-29T00:50:49.278Z,12.50
2022-11-29T00:53:18.569Z,13.75
2022-11-29T00:55:46.734Z,11.75
2022-11-29T00:58:14.597Z,13.50
2022-11-29T01:00:42.474Z,14.25
2022-11-29T01:03:10.846Z,12.75
2022-11-29T01:05:39.028Z,11.75
2022-11-29T01:08:07.133Z,13.00
2022-11-29T01:10:36.395Z,12.00
2022-11-29T01:13:04.317Z,11.25
2022-11-29T01:15:32.547Z,12.00
2022-11-29T01:18:00.453Z,13.00
2022-11-29T01:20:28.381Z,12.75
2022-11-29T01:22:56.242Z,12.50
2022-11-29T01:25:24.450Z,12.75
2022-11-29T01:27:53.731Z,12.00
2022-11-29T01:30:21.822Z,11.75
2022-11-29T01:32:49.790Z,11.50
2022-11-29T01:35:17.954Z,12.00
2022-11-29T01:37:45.816Z,11.75
2022-11-29T01:40:14.964Z,10.50
2022-11-29T01:42:42.812Z,11.00
2022-11-29T01:45:22.816Z,10.75
2022-11-29T01:47:51.136Z,12.50
2022-11-29T01:50:19.156Z,10.75
2022-11-29T01:52:47.062Z,9.75
2022-11-29T01:55:15.174Z,10.50
2022-11-29T01:57:43.329Z,11.75
2022-11-29T02:00:17.429Z,11.00
2022-11-29T02:02:46.368Z,10.75
2022-11-29T02:05:15.023Z,11.50
2022-11-29T02:07:43.391Z,11.75
2022-11-29T02:10:11.581Z,9.25
2022-11-29T02:12:44.040Z,11.00
2022-11-29T02:15:29.111Z,10.25
2022-11-29T02:18:02.707Z,10.50
2022-11-29T02:21:09.023Z,9.75
2022-11-29T02:24:33.611Z,10.00
2022-11-29T02:27:18.068Z,9.75
2022-11-29T02:30:13.645Z,10.00
2022-11-29T02:33:15.315Z,10.50
2022-11-29T02:36:14.215Z,10.25
2022-11-29T02:38:57.226Z,9.00
2022-11-29T02:41:32.133Z,11.00
2022-11-29T02:44:08.449Z,12.00
2022-11-29T02:46:45.618Z,11.50
2022-11-29T02:49:16.731Z,9.75
2022-11-29T02:51:47.953Z,10.25
2022-11-29T02:54:18.720Z,9.75
2022-11-29T02:56:49.007Z,9.00
2022-11-29T02:59:22.125Z,9.50
2022-11-29T03:01:53.299Z,10.00
2022-11-29T03:04:27.105Z,9.25
2022-11-29T03:06:57.894Z,9.00
2022-11-29T03:09:29.475Z,8.75
2022-11-29T03:12:00.399Z,9.00
2022-11-29T03:14:30.075Z,9.00
2022-11-29T03:17:04.715Z,10.25
2022-11-29T03:19:41.578Z,9.00
2022-11-29T03:22:13.723Z,8.75
2022-11-29T03:24:45.519Z,8.25
2022-11-29T03:27:14.483Z,7.75
2022-11-29T03:29:46.429Z,9.00
2022-11-29T03:32:17.359Z,10.00
2022-11-29T03:34:56.841Z,8.75
2022-11-29T03:37:27.411Z,8.75
2022-11-29T03:39:58.625Z,9.00
2022-11-29T03:42:27.805Z,8.00
2022-11-29T03:44:59.230Z,10.25
2022-11-29T03:47:29.998Z,8.50
2022-11-29T03:50:01.083Z,8.00
2022-11-29T03:52:32.052Z,9.00
2022-11-29T03:55:12.994Z,7.75
2022-11-29T03:57:44.435Z,8.50
2022-11-29T04:00:13.375Z,10.25
2022-11-29T04:03:34.846Z,8.75
2022-11-29T04:06:18.470Z,10.00
2022-11-29T04:09:20.932Z,10.75
2022-11-29T04:12:18.150Z,8.50
2022-11-29T04:15:18.912Z,9.25
2022-11-29T04:18:14.883Z,8.00
2022-11-29T04:21:07.703Z,9.75
2022-11-29T04:24:11.712Z,8.75
2022-11-29T04:26:52.664Z,8.00
2022-11-29T04:29:25.715Z,10.00
2022-11-29T04:32:05.824Z,8.75
2022-11-29T04:34:46.972Z,9.50
2022-11-29T04:37:35.848Z,9.00
2022-11-29T04:40:37.803Z,8.50
2022-11-29T04:43:14.913Z,9.50
2022-11-29T04:46:26.227Z,9.75
2022-11-29T04:49:30.083Z,9.50
2022-11-29T04:52:17.429Z,8.00
2022-11-29T04:54:48.299Z,9.00
2022-11-29T04:57:21.131Z,8.00
2022-11-29T04:59:52.785Z,9.50
2022-11-29T05:02:29.817Z,9.75
2022-11-29T05:04:59.941Z,10.00
2022-11-29T05:07:31.035Z,10.00
2022-11-29T05:10:04.365Z,10.00
2022-11-29T05:12:34.888Z,10.50
2022-11-29T05:15:33.845Z,10.00
2022-11-29T05:18:07.266Z,10.00
2022-11-29T05:20:38.200Z,10.25
2022-11-29T05:23:13.649Z,10.75
2022-11-29T05:25:44.698Z,10.75
2022-11-29T05:28:16.165Z,10.00
2022-11-29T05:31:15.914Z,11.00
2022-11-29T05:34:06.255Z,10.25
2022-11-29T05:36:38.254Z,9.50
2022-11-29T05:39:32.148Z,9.00
2022-11-29T05:42:09.106Z,11.00
2022-11-29T05:44:38.946Z,9.25
2022-11-29T05:47:10.186Z,11.00
2022-11-29T05:49:40.788Z,9.00
2022-11-29T05:52:21.652Z,9.25
2022-11-29T05:54:54.727Z,11.50
2022-11-29T05:57:26.089Z,10.25
2022-11-29T05:59:54.020Z,10.75
2022-11-29T06:02:31.784Z,10.25
2022-11-29T06:05:07.952Z,10.00
2022-11-29T06:07:40.039Z,10.25
2022-11-29T06:10:12.165Z,13.00
2022-11-29T06:12:40.664Z,11.00
2022-11-29T06:15:31.479Z,8.50
2022-11-29T06:18:09.100Z,10.25
2022-11-29T06:20:43.882Z,11.75
2022-11-29T06:23:29.110Z,10.50
2022-11-29T06:26:04.471Z,10.75
2022-11-29T06:28:43.250Z,11.25
2022-11-29T06:31:14.940Z,11.00
2022-11-29T06:33:47.015Z,11.50
2022-11-29T06:36:18.049Z,11.25
2022-11-29T06:38:46.723Z,13.25
2022-11-29T06:41:18.514Z,13.75
2022-11-29T06:43:47.117Z,16.25
2022-11-29T06:46:19.182Z,15.50
2022-11-29T06:48:50.766Z,14.75
2022-11-29T06:51:21.498Z,15.75
2022-11-29T06:53:51.266Z,14.00
2022-11-29T06:56:22.680Z,15.50
2022-11-29T06:58:55.688Z,15.75
2022-11-29T07:01:27.272Z,14.75
2022-11-29T07:04:06.395Z,17.75
2022-11-29T07:06:34.655Z,17.25
2022-11-29T07:09:04.808Z,16.00
2022-11-29T07:11:33.497Z,15.25
2022-11-29T07:14:01.954Z,19.25
2022-11-29T07:16:31.484Z,18.50
2022-11-29T07:19:05.088Z,19.25
2022-11-29T07:21:41.205Z,17.50
2022-11-29T07:24:12.777Z,17.00
2022-11-29T07:26:43.897Z,20.25
2022-11-29T07:29:20.605Z,18.00
2022-11-29T07:31:53.292Z,21.25
2022-11-29T07:34:28.198Z,20.75
2022-11-29T07:36:58.142Z,21.00
2022-11-29T07:39:30.367Z,22.25
2022-11-29T07:42:01.943Z,21.25
2022-11-29T07:44:33.133Z,22.75
2022-11-29T07:47:01.325Z,22.75
2022-11-29T07:49:30.617Z,21.00
2022-11-29T07:51:58.545Z,23.75
2022-11-29T07:54:26.820Z,23.00
2022-11-29T07:56:54.984Z,23.00
2022-11-29T07:59:22.876Z,22.75
2022-11-29T08:01:50.787Z,24.25
2022-11-29T08:04:18.709Z,22.75
2022-11-29T08:06:48.288Z,22.00
2022-11-29T08:09:16.177Z,26.00
2022-11-29T08:11:44.729Z,25.00
2022-11-29T08:14:12.635Z,23.00
2022-11-29T08:16:40.905Z,24.75
2022-11-29T08:19:09.041Z,23.25
2022-11-29T08:21:36.943Z,22.00
2022-11-29T08:24:06.746Z,24.25
2022-11-29T08:26:34.895Z,22.00
2022-11-29T08:29:02.835Z,23.50
2022-11-29T08:31:30.765Z,21.75
2022-11-29T08:33:58.678Z,18.75
2022-11-29T08:36:26.985Z,19.00
2022-11-29T08:39:02.284Z,19.00
2022-11-29T08:41:35.272Z,19.25
2022-11-29T08:44:03.350Z,19.50
2022-11-29T08:46:45.397Z,20.75
2022-11-29T08:49:13.282Z,19.00
2022-11-29T08:51:41.206Z,19.25
2022-11-29T08:54:08.210Z,19.75
2022-11-29T08:59:27.086Z,19.50
2022-11-29T09:01:55.048Z,18.75
2022-11-29T09:04:23.374Z,18.75
2022-11-29T09:06:54.415Z,18.25
2022-11-29T09:09:22.292Z,17.50
2022-11-29T09:11:51.546Z,17.00
2022-11-29T09:14:19.975Z,17.00
2022-11-29T09:16:48.196Z,18.50
2022-11-29T09:19:16.827Z,18.75
2022-11-29T09:21:44.681Z,18.25
2022-11-29T09:24:12.638Z,20.00
2022-11-29T09:26:42.144Z,17.25
2022-11-29T09:29:11.802Z,20.25
2022-11-29T09:31:39.760Z,16.75
2022-11-29T09:34:07.647Z,18.00
2022-11-29T09:36:35.875Z,17.75
2022-11-29T09:39:03.842Z,17.50
2022-11-29T09:41:49.013Z,16.75
2022-11-29T09:44:21.832Z,15.75
2022-11-29T09:46:58.593Z,16.50
2022-11-29T09:49:56.317Z,15.50
2022-11-29T09:52:30.583Z,16.00
2022-11-29T09:55:01.242Z,15.25
2022-11-29T09:57:29.372Z,17.50
2022-11-29T09:59:59.378Z,16.00
2022-11-29T10:02:31.465Z,14.50
2022-11-29T10:05:02.489Z,15.50
2022-11-29T10:07:34.018Z,12.25
2022-11-29T10:10:03.533Z,17.25
2022-11-29T10:12:34.313Z,14.50
2022-11-29T10:15:08.821Z,15.75
2022-11-29T10:17:38.421Z,15.50
2022-11-29T10:20:11.949Z,14.50
2022-11-29T10:22:43.571Z,14.75
2022-11-29T10:25:17.498Z,12.25
2022-11-29T10:27:45.390Z,15.50
2022-11-29T10:30:16.758Z,12.00
2022-11-29T10:32:46.594Z,13.00
2022-11-29T10:35:15.383Z,13.50
2022-11-29T10:37:56.388Z,12.00
2022-11-29T10:40:32.568Z,13.75
2022-11-29T10:43:00.406Z,12.50
2022-11-29T10:45:30.953Z,12.00
2022-11-29T10:48:01.991Z,12.00
2022-11-29T10:50:30.823Z,14.25
2022-11-29T10:53:02.007Z,11.75
2022-11-29T10:55:29.864Z,14.75
2022-11-29T10:58:11.728Z,14.25
2022-11-29T11:00:51.400Z,12.25
2022-11-29T11:03:26.031Z,12.75
2022-11-29T11:06:01.484Z,13.00
2022-11-29T11:08:29.720Z,10.75
2022-11-29T11:11:01.689Z,14.25
2022-11-29T11:13:31.109Z,13.00
2022-11-29T11:16:08.996Z,13.25
2022-11-29T11:18:37.349Z,12.75
2022-11-29T11:21:05.338Z,13.50
2022-11-29T11:23:36.469Z,12.00
2022-11-29T11:26:10.546Z,13.00
2022-11-29T11:28:41.481Z,11.50
2022-11-29T11:31:11.977Z,14.25
2022-11-29T11:33:40.306Z,11.00
2022-11-29T11:36:11.001Z,10.75
2022-11-29T11:38:39.875Z,12.00
2022-11-29T11:41:23.811Z,13.75
2022-11-29T11:43:56.385Z,12.50
2022-11-29T11:46:27.054Z,10.50
2022-11-29T11:48:54.961Z,13.25
2022-11-29T11:51:24.370Z,14.00
2022-11-29T11:53:53.441Z,11.75
2022-11-29T11:56:23.654Z,11.50
2022-11-29T11:58:52.994Z,12.50
2022-11-29T12:01:28.641Z,10.25
2022-11-29T12:04:01.788Z,10.75
2022-11-29T12:06:39.497Z,11.50
2022-11-29T12:09:13.943Z,10.25
2022-11-29T12:11:45.446Z,11.50
2022-11-29T12:14:19.410Z,12.00
2022-11-29T12:16:48.990Z,10.50
2022-11-29T12:19:18.963Z,11.75
2022-11-29T12:21:49.124Z,12.00
2022-11-29T12:24:21.744Z,11.50
2022-11-29T12:26:58.577Z,10.00
2022-11-29T12:29:28.458Z,12.00
2022-11-29T12:32:02.984Z,11.25
2022-11-29T12:34:42.998Z,10.25
2022-11-29T12:37:12.627Z,10.50
2022-11-29T12:39:48.638Z,12.00
2022-11-29T12:42:21.246Z,9.75
2022-11-29T12:44:53.859Z,11.50
2022-11-29T12:47:37.392Z,11.25
2022-11-29T12:50:13.271Z,10.50
2022-11-29T12:52:44.911Z,8.75
2022-11-29T12:55:19.317Z,9.75
2022-11-29T12:57:49.941Z,10.50
2022-11-29T13:00:18.783Z,10.00
2022-11-29T13:02:55.666Z,9.50
2022-11-29T13:05:34.268Z,12.25
2022-11-29T13:08:13.516Z,10.75
2022-11-29T13:10:52.076Z,10.50
2022-11-29T13:13:22.082Z,9.75
2022-11-29T13:15:54.234Z,11.50
2022-11-29T13:18:25.821Z,13.50
2022-11-29T13:20:55.536Z,10.00
2022-11-29T13:23:45.809Z,9.25
2022-11-29T13:26:13.992Z,9.50
2022-11-29T13:28:43.239Z,10.00
2022-11-29T13:31:15.110Z,9.75
2022-11-29T13:33:53.954Z,12.75
2022-11-29T13:36:23.791Z,10.00
2022-11-29T13:38:57.235Z,10.75
2022-11-29T13:41:30.071Z,9.25
2022-11-29T13:44:00.102Z,10.75
2022-11-29T13:46:30.452Z,9.75
2022-11-29T13:48:59.868Z,10.50
2022-11-29T13:51:30.282Z,9.75
2022-11-29T13:53:58.829Z,10.50
2022-11-29T13:56:43.028Z,11.00
2022-11-29T13:59:17.536Z,11.25
2022-11-29T14:01:46.799Z,10.75
2022-11-29T14:04:37.248Z,9.75
2022-11-29T14:07:12.441Z,10.00
2022-11-29T14:09:44.695Z,9.00
2022-11-29T14:12:35.889Z,10.25
2022-11-29T14:15:08.763Z,13.50
2022-11-29T14:17:55.324Z,9.25
2022-11-29T14:20:58.135Z,10.25
2022-11-29T14:23:42.072Z,8.75
2022-11-29T14:26:29.674Z,10.50
2022-11-29T14:28:58.423Z,9.75
2022-11-29T14:31:54.129Z,8.50
2022-11-29T14:34:43.551Z,10.50
2022-11-29T14:37:42.216Z,12.00
2022-11-29T14:40:19.424Z,10.00
2022-11-29T14:42:48.079Z,9.00
2022-11-29T14:45:23.308Z,10.75
2022-11-29T14:47:51.292Z,9.25
2022-11-29T14:50:30.585Z,9.50
2022-11-29T14:52:59.803Z,10.00
2022-11-29T14:55:35.448Z,11.00
2022-11-29T14:58:17.415Z,10.00
2022-11-29T15:01:01.769Z,9.50
2022-11-29T15:03:38.317Z,10.00
2022-11-29T15:06:13.079Z,12.00
2022-11-29T15:08:47.925Z,10.50
2022-11-29T15:11:19.133Z,8.75
2022-11-29T15:13:50.874Z,10.25
2022-11-29T15:16:28.403Z,11.50
2022-11-29T15:19:15.233Z,9.00
2022-11-29T15:21:47.230Z,10.75
2022-11-29T15:24:17.101Z,10.50
2022-11-29T15:26:56.065Z,10.00
2022-11-29T15:29:23.955Z,9.50
2022-11-29T15:31:54.162Z,9.75
2022-11-29T15:34:31.484Z,11.00
2022-11-29T15:36:59.447Z,13.50
2022-11-29T15:39:31.332Z,11.75
2022-11-29T15:42:03.476Z,9.00
2022-11-29T15:44:33.240Z,9.00
2022-11-29T15:47:17.866Z,10.75
2022-11-29T15:49:45.794Z,9.75
2022-11-29T15:52:20.137Z,10.25
2022-11-29T15:54:50.707Z,10.50
2022-11-29T15:57:19.555Z,10.50
2022-11-29T15:59:48.856Z,9.25
2022-11-29T16:02:19.616Z,9.50
2022-11-29T16:04:47.667Z,11.25
2022-11-29T16:07:16.279Z,9.00
2022-11-29T16:09:45.405Z,9.50
2022-11-29T16:12:15.878Z,11.75
2022-11-29T16:14:51.255Z,10.50
2022-11-29T16:17:20.042Z,11.75
2022-11-29T16:19:48.127Z,12.75
2022-11-29T16:22:17.937Z,9.00
2022-11-29T16:24:53.689Z,10.25
2022-11-29T16:27:23.362Z,10.50
2022-11-29T16:29:51.590Z,9.25
2022-11-29T16:32:26.175Z,11.25
2022-11-29T16:34:54.055Z,9.00
2022-11-29T16:37:22.861Z,9.00
2022-11-29T16:39:51.847Z,11.75
2022-11-29T16:42:28.057Z,10.25
2022-11-29T16:45:00.082Z,9.00
2022-11-29T16:47:31.716Z,9.75
2022-11-29T16:50:14.126Z,10.25
2022-11-29T16:52:42.018Z,10.00
2022-11-29T16:55:10.179Z,8.75
2022-11-29T16:57:39.541Z,10.75
2022-11-29T17:00:23.605Z,9.75
2022-11-29T17:02:51.765Z,8.75
2022-11-29T17:05:19.637Z,10.50
2022-11-29T17:07:47.790Z,9.00
2022-11-29T17:10:17.752Z,10.75
2022-11-29T17:12:48.464Z,8.25
2022-11-29T17:15:16.965Z,10.25
2022-11-29T17:17:44.863Z,10.00
2022-11-29T17:20:13.577Z,10.00
2022-11-29T17:22:41.486Z,9.75
2022-11-29T17:25:10.079Z,9.50
2022-11-29T17:27:38.112Z,9.50
2022-11-29T17:30:14.690Z,8.75
2022-11-29T17:32:42.630Z,9.25
2022-11-29T17:35:10.846Z,10.50
2022-11-29T17:37:38.754Z,9.25
2022-11-29T17:40:07.769Z,10.25
2022-11-29T17:42:35.653Z,8.00
2022-11-29T17:45:04.190Z,8.75
2022-11-29T17:47:33.599Z,10.00
2022-11-29T17:50:01.507Z,8.25
2022-11-29T17:52:29.486Z,8.50
2022-11-29T17:54:57.678Z,7.75
2022-11-29T17:57:28.370Z,8.75
2022-11-29T18:00:05.418Z,9.50
2022-11-29T18:02:34.764Z,8.00
2022-11-29T18:05:02.683Z,7.00
2022-11-29T18:07:32.895Z,8.00
2022-11-29T18:10:01.200Z,9.00
2022-11-29T18:12:29.107Z,7.75
2022-11-29T18:14:57.014Z,8.75
2022-11-29T18:17:25.326Z,8.75
2022-11-29T18:19:55.040Z,7.00
2022-11-29T18:22:22.975Z,10.25
2022-11-29T18:24:50.837Z,9.00
2022-11-29T18:27:19.345Z,7.00
2022-11-29T18:29:47.408Z,9.75
2022-11-29T18:32:15.529Z,8.75
2022-11-29T18:34:43.568Z,7.50
2022-11-29T18:37:20.058Z,9.00
2022-11-29T18:39:57.158Z,7.75
2022-11-29T18:42:25.290Z,8.00
2022-11-29T18:44:58.627Z,8.25
2022-11-29T18:47:26.815Z,9.00
2022-11-29T18:49:55.211Z,7.75
2022-11-29T18:52:24.541Z,9.50
2022-11-29T18:54:52.431Z,8.75
2022-11-29T18:57:20.470Z,8.25
2022-11-29T18:59:48.854Z,8.00
2022-11-29T19:02:20.881Z,9.75
2022-11-29T19:04:50.442Z,10.75
2022-11-29T19:07:18.493Z,9.00
2022-11-29T19:09:47.845Z,7.75
2022-11-29T19:12:15.708Z,10.00
2022-11-29T19:14:49.438Z,9.00
2022-11-29T19:17:17.841Z,11.75
2022-11-29T19:19:46.342Z,12.25
2022-11-29T19:22:14.473Z,9.75
2022-11-29T19:24:43.066Z,10.75
2022-11-29T19:27:12.598Z,11.50
2022-11-29T19:29:40.463Z,11.50
2022-11-29T19:32:09.459Z,12.75
2022-11-29T19:34:37.389Z,11.25
2022-11-29T19:37:05.254Z,12.75
2022-11-29T19:39:34.142Z,12.75
2022-11-29T19:42:02.139Z,14.00
2022-11-29T19:44:35.896Z,12.50
2022-11-29T19:47:16.378Z,12.00
2022-11-29T19:49:46.727Z,13.00
2022-11-29T19:52:14.907Z,14.50
2022-11-29T19:54:42.781Z,13.50
2022-11-29T19:57:10.708Z,12.50
2022-11-29T19:59:40.277Z,12.50
2022-11-29T20:02:08.672Z,13.75
2022-11-29T20:04:36.640Z,14.75
2022-11-29T20:07:04.587Z,14.50
2022-11-29T20:09:32.834Z,14.75
2022-11-29T20:12:00.753Z,17.25
2022-11-29T20:14:28.647Z,15.75
2022-11-29T20:16:57.882Z,18.00
2022-11-29T20:19:26.041Z,16.75
2022-11-29T20:21:53.911Z,15.75
2022-11-29T20:24:21.786Z,18.00
2022-11-29T20:26:49.785Z,17.75
2022-11-29T20:29:19.237Z,17.50
2022-11-29T20:31:50.535Z,21.50
2022-11-29T20:34:20.964Z,17.75
2022-11-29T20:37:15.592Z,18.75
2022-11-29T20:39:46.716Z,19.50
2022-11-29T20:42:35.859Z,21.50
2022-11-29T20:45:04.842Z,20.00
2022-11-29T20:47:34.704Z,21.50
2022-11-29T20:50:04.815Z,21.50
2022-11-29T20:52:37.418Z,19.50
2022-11-29T20:55:05.826Z,23.25
2022-11-29T20:57:33.718Z,21.50
2022-11-29T21:00:02.403Z,21.75
2022-11-29T21:02:30.335Z,20.00
2022-11-29T21:04:58.214Z,20.50
2022-11-29T21:07:27.475Z,20.25
2022-11-29T21:10:00.755Z,19.75
2022-11-29T21:12:30.042Z,20.25
2022-11-29T21:14:58.511Z,20.00
2022-11-29T21:17:33.136Z,21.50
2022-11-29T21:20:03.590Z,19.00
2022-11-29T21:22:38.707Z,19.25
2022-11-29T21:25:10.947Z,19.75
2022-11-29T21:27:39.443Z,21.75
2022-11-29T21:30:14.500Z,18.75
2022-11-29T21:32:42.993Z,18.75
2022-11-29T21:35:10.888Z,16.00
2022-11-29T21:37:40.171Z,17.75
2022-11-29T21:40:09.456Z,17.25
2022-11-29T21:42:37.475Z,16.25
2022-11-29T21:45:14.941Z,20.25
2022-11-29T21:47:43.930Z,18.00
2022-11-29T21:50:13.068Z,18.25
2022-11-29T21:52:44.221Z,16.25
2022-11-29T21:55:12.137Z,15.75
2022-11-29T21:57:40.141Z,16.50
2022-11-29T22:00:11.444Z,17.50
2022-11-29T22:02:39.486Z,18.75
2022-11-29T22:05:09.688Z,17.00
2022-11-29T22:07:37.713Z,17.00
2022-11-29T22:10:13.339Z,17.75
2022-11-29T22:12:51.283Z,16.00
2022-11-29T22:15:24.552Z,15.00
2022-11-29T22:17:52.969Z,14.75
2022-11-29T22:20:21.189Z,17.50
2022-11-29T22:22:49.275Z,16.25
2022-11-29T22:25:19.222Z,16.50
2022-11-29T22:27:47.142Z,16.25
2022-11-29T22:30:15.736Z,18.75
2022-11-29T22:32:43.746Z,17.25
2022-11-29T22:35:11.610Z,16.00
2022-11-29T22:37:39.499Z,17.00
2022-11-29T22:40:08.835Z,18.25
2022-11-29T22:42:38.197Z,18.00
2022-11-29T22:45:08.952Z,17.75
2022-11-29T22:47:36.872Z,19.25
2022-11-29T22:50:05.882Z,17.50
2022-11-29T22:52:33.799Z,18.00
2022-11-29T22:55:05.058Z,19.75
2022-11-29T22:57:33.310Z,18.25
2022-11-29T23:00:02.921Z,17.50
2022-11-29T23:02:30.919Z,17.00
2022-11-29T23:04:58.795Z,17.00
2022-11-29T23:07:26.722Z,16.75
2022-11-29T23:09:55.963Z,17.50
2022-11-29T23:12:24.999Z,17.50
2022-11-29T23:14:56.318Z,17.25
2022-11-29T23:17:25.909Z,17.00
2022-11-29T23:19:54.064Z,17.00
2022-11-29T23:22:21.943Z,17.00
2022-11-29T23:24:49.825Z,16.00
2022-11-29T23:27:17.672Z,16.25
2022-11-29T23:29:45.838Z,16.00
2022-11-29T23:32:13.708Z,19.00
2022-11-29T23:34:42.973Z,15.25
2022-11-29T23:37:10.850Z,18.50
2022-11-29T23:39:39.054Z,16.00
2022-11-29T23:42:06.978Z,16.50
2022-11-29T23:44:34.835Z,15.50
2022-11-29T23:47:02.714Z,15.75
2022-11-29T23:49:31.859Z,15.75
2022-11-29T23:52:01.124Z,15.00
2022-11-29T23:54:29.058Z,15.50
2022-11-29T23:56:56.902Z,16.75
2022-11-29T23:59:25.052Z,15.50
